Latest Weather Observations for Inner Beacon

IDQ60801

Issued at 9:02 pm EST Saturday 29 April 2017 (issued every 30 minutes, with the page automatically refreshed every 10 minutes)

About weather observations | Map of weather stations | Latest weather observations for QLD | Other Formats
Station Details ID: 040926 Name: INNER RECIPROCAL MARKER Lat: -27.26 Lon: 153.24 Height: 20.0 m
Data from the previous 72 hours. | See also: Recent months for locations in Queensland
Date/Time
EST
Temp
°C
App
Temp
°C
Dew
Point
°C
Rel
Hum
%
Delta-T
°C
Wind Press
QNH
hPa
Press
MSL
hPa
Rain since
9am
mm
Dir  Spd
km/h
Gust
km/h
Spd
kts
Gust
kts
29/09:00pm - - - - - SE 17 20 9 11 - - -
29/08:30pm - - - - - SE 19 22 10 12 - - -
29/08:00pm - - - - - ESE 15 17 8 9 - - -
29/07:30pm - - - - - ESE 17 19 9 10 - - -
29/07:00pm - - - - - ESE 19 22 10 12 - - -
29/06:30pm - - - - - SE 20 24 11 13 - - -
29/06:00pm - - - - - SE 24 28 13 15 - - -
29/05:30pm - - - - - SE 22 26 12 14 - - -
29/05:00pm - - - - - SE 22 26 12 14 - - -
29/04:30pm - - - - - ESE 19 22 10 12 - - -
29/04:00pm - - - - - E 13 19 7 10 - - -
29/03:30pm - - - - - ENE 7 9 4 5 - - -
29/03:00pm - - - - - E 4 6 2 3 - - -
29/02:30pm - - - - - ESE 6 7 3 4 - - -
29/02:00pm - - - - - ESE 6 9 3 5 - - -
29/01:30pm - - - - - SE 7 9 4 5 - - -
29/01:00pm - - - - - S 13 15 7 8 - - -
29/12:30pm - - - - - S 17 19 9 10 - - -
29/12:00pm - - - - - S 19 22 10 12 - - -
29/11:30am - - - - - S 17 20 9 11 - - -
29/11:00am - - - - - S 19 22 10 12 - - -
29/10:30am - - - - - SSW 22 28 12 15 - - -
29/10:00am - - - - - SSW 20 24 11 13 - - -
29/09:30am - - - - - SSW 22 28 12 15 - - -
29/09:00am - - - - - SSW 20 24 11 13 - - -
29/08:30am - - - - - SSW 22 26 12 14 - - -
29/08:00am - - - - - SW 22 24 12 13 - - -
29/07:30am - - - - - SW 20 24 11 13 - - -
29/07:00am - - - - - SSW 24 30 13 16 - - -
29/06:30am - - - - - SSW 28 32 15 17 - - -
29/06:00am - - - - - SSW 24 30 13 16 - - -
29/05:30am - - - - - SSW 28 30 15 16 - - -
29/05:00am - - - - - SSW 20 26 11 14 - - -
29/04:30am - - - - - SSW 26 30 14 16 - - -
29/04:00am - - - - - SSW 26 30 14 16 - - -
29/03:30am - - - - - SSW 26 30 14 16 - - -
29/03:00am - - - - - SSW 28 32 15 17 - - -
29/02:30am - - - - - SSW 28 35 15 19 - - -
29/02:00am - - - - - SSW 32 35 17 19 - - -
29/01:30am - - - - - SSW 32 37 17 20 - - -
29/01:00am - - - - - SSW 32 35 17 19 - - -
29/12:30am - - - - - SSW 28 37 15 20 - - -
29/12:00am - - - - - SSW 30 35 16 19 - - -
 
Date/Time
EST
Temp
°C
App
Temp
°C
Dew
Point
°C
Rel
Hum
%
Delta-T
°C
Wind Press
QNH
hPa
Press
MSL
hPa
Rain since
9am
mm
Dir  Spd
km/h
Gust
km/h
Spd
kts
Gust
kts
28/11:30pm - - - - - SSW 28 33 15 18 - - -
28/11:00pm - - - - - SSW 28 33 15 18 - - -
28/10:30pm - - - - - SSW 30 35 16 19 - - -
28/10:00pm - - - - - SSW 30 39 16 21 - - -
28/09:30pm - - - - - SSW 28 37 15 20 - - -
28/09:00pm - - - - - SSW 30 35 16 19 - - -
28/08:30pm - - - - - SSW 28 33 15 18 - - -
28/08:00pm - - - - - SSW 28 32 15 17 - - -
28/07:30pm - - - - - SSW 30 37 16 20 - - -
28/07:00pm - - - - - SSW 30 35 16 19 - - -
28/06:30pm - - - - - SSW 26 30 14 16 - - -
28/06:00pm - - - - - SSW 26 32 14 17 - - -
28/05:30pm - - - - - SSW 28 32 15 17 - - -
28/05:00pm - - - - - SSW 28 32 15 17 - - -
28/04:30pm - - - - - S 30 35 16 19 - - -
28/04:00pm - - - - - S 28 33 15 18 - - -
28/03:30pm - - - - - S 24 30 13 16 - - -
28/03:00pm - - - - - SSE 17 24 9 13 - - -
28/02:30pm - - - - - SSE 11 15 6 8 - - -
28/02:00pm - - - - - SSE 17 20 9 11 - - -
28/01:30pm - - - - - SE 15 19 8 10 - - -
28/01:00pm - - - - - S 13 19 7 10 - - -
28/12:30pm - - - - - S 9 11 5 6 - - -
28/12:00pm - - - - - SSW 13 15 7 8 - - -
28/11:30am - - - - - SW 20 24 11 13 - - -
28/11:00am - - - - - SW 22 24 12 13 - - -
28/10:30am - - - - - SW 22 24 12 13 - - -
28/10:00am - - - - - SSW 22 28 12 15 - - -
28/09:30am - - - - - SSW 24 30 13 16 - - -
28/09:00am - - - - - SSW 28 32 15 17 - - -
28/08:30am - - - - - SW 22 26 12 14 - - -
28/08:00am - - - - - SW 22 28 12 15 - - -
28/07:30am - - - - - SW 22 26 12 14 - - -
28/07:00am - - - - - SW 26 32 14 17 - - -
28/06:30am - - - - - SW 28 32 15 17 - - -
28/06:00am - - - - - SW 26 30 14 16 - - -
28/05:30am - - - - - SW 28 33 15 18 - - -
28/05:00am - - - - - SW 24 32 13 17 - - -
28/04:30am - - - - - SW 24 32 13 17 - - -
28/04:00am - - - - - SW 22 28 12 15 - - -
28/03:30am - - - - - SW 22 30 12 16 - - -
28/03:00am - - - - - WSW 26 32 14 17 - - -
28/02:30am - - - - - SW 28 35 15 19 - - -
28/02:00am - - - - - SW 30 33 16 18 - - -
28/01:30am - - - - - WSW 30 35 16 19 - - -
28/01:00am - - - - - WSW 28 33 15 18 - - -
28/12:30am - - - - - WSW 30 35 16 19 - - -
28/12:00am - - - - - WSW 30 35 16 19 - - -
 
Date/Time
EST
Temp
°C
App
Temp
°C
Dew
Point
°C
Rel
Hum
%
Delta-T
°C
Wind Press
QNH
hPa
Press
MSL
hPa
Rain since
9am
mm
Dir  Spd
km/h
Gust
km/h
Spd
kts
Gust
kts
27/11:30pm - - - - - WSW 30 37 16 20 - - -
27/11:00pm - - - - - WSW 28 33 15 18 - - -
27/10:30pm - - - - - WSW 28 33 15 18 - - -
27/10:00pm - - - - - WSW 28 33 15 18 - - -
27/09:30pm - - - - - WSW 24 30 13 16 - - -
27/09:00pm - - - - - WSW 26 30 14 16 - - -
27/08:30pm - - - - - WSW 26 32 14 17 - - -
27/08:00pm - - - - - WSW 22 28 12 15 - - -
27/07:30pm - - - - - WSW 32 39 17 21 - - -
27/07:00pm - - - - - WSW 24 30 13 16 - - -
27/06:30pm - - - - - WSW 15 19 8 10 - - -
27/06:00pm - - - - - WSW 20 26 11 14 - - -
27/05:30pm - - - - - SW 17 22 9 12 - - -
27/05:00pm - - - - - SW 19 24 10 13 - - -
27/04:30pm - - - - - SW 15 19 8 10 - - -
27/04:00pm - - - - - SW 15 20 8 11 - - -
27/03:30pm - - - - - SW 19 24 10 13 - - -
27/03:00pm - - - - - SW 17 22 9 12 - - -
27/02:30pm - - - - - SW 15 20 8 11 - - -
27/02:00pm - - - - - SW 17 22 9 12 - - -
27/01:30pm - - - - - SW 19 26 10 14 - - -
27/01:00pm - - - - - SW 22 26 12 14 - - -
27/12:30pm - - - - - SW 24 33 13 18 - - -
27/12:00pm - - - - - SW 28 35 15 19 - - -
27/11:30am - - - - - SW 26 33 14 18 - - -
27/11:00am - - - - - SW 24 28 13 15 - - -
27/10:30am - - - - - SW 22 30 12 16 - - -
27/10:00am - - - - - SW 24 32 13 17 - - -
27/09:30am - - - - - SW 26 30 14 16 - - -
27/09:00am - - - - - WSW 26 32 14 17 - - -
27/08:30am - - - - - WSW 28 33 15 18 - - -
27/08:00am - - - - - W 26 32 14 17 - - -
27/07:30am - - - - - W 26 32 14 17 - - -
27/07:00am - - - - - W 26 30 14 16 - - -
27/06:30am - - - - - W 20 26 11 14 - - -
27/06:00am - - - - - W 22 26 12 14 - - -
27/05:30am - - - - - W 24 26 13 14 - - -
27/05:00am - - - - - WSW 28 32 15 17 - - -
27/04:30am - - - - - WSW 28 32 15 17 - - -
27/04:00am - - - - - WSW 30 33 16 18 - - -
27/03:30am - - - - - WSW 30 33 16 18 - - -
27/03:00am - - - - - WSW 33 39 18 21 - - -
27/02:30am - - - - - WSW 30 35 16 19 - - -
27/02:00am - - - - - WSW 30 39 16 21 - - -
27/01:30am - - - - - WSW 33 39 18 21 - - -
27/01:00am - - - - - W 32 37 17 20 - - -
27/12:30am - - - - - W 28 33 15 18 - - -
27/12:00am - - - - - W 32 35 17 19 - - -
 
Date/Time
EST
Temp
°C
App
Temp
°C
Dew
Point
°C
Rel
Hum
%
Delta-T
°C
Wind Press
QNH
hPa
Press
MSL
hPa
Rain since
9am
mm
Dir  Spd
km/h
Gust
km/h
Spd
kts
Gust
kts
26/11:30pm - - - - - WSW 30 35 16 19 - - -
26/11:00pm - - - - - W 26 32 14 17 - - -
26/10:30pm - - - - - WSW 26 35 14 19 - - -
26/10:00pm - - - - - WSW 33 43 18 23 - - -
26/09:30pm - - - - - WSW 30 41 16 22 - - -

Other Formats:

Comma delimited format used in spreadsheet applications
http://www.bom.gov.au/fwo/IDQ60801/IDQ60801.94590.axf

JavaScript Object Notation format (JSON) in row-major order
http://www.bom.gov.au/fwo/IDQ60801/IDQ60801.94590.json